• Join FlightAware (Why Join?)
  • Login
  • US Flag 
06:29AM EDT


 

Airport Tracker/Info


-or-


 

Live Flight TrackerFlight Track Log ✈ N960DL ✈ 23-Apr-2013 ✈ KIAH - KATL

Flight Track Log - Related Links

Times and Time Zones

All times are in EDT time to prevent confusion due to time zone crossing. See the N960DL flight status page for this flight to view local times or setup timezone preferences in your user account.

Time Position Orientation Groundspeed Altitude Reporting Facility
EDT Latitude Longitude Course Direction KTS MPH feet Rate Location/Type
07:07AM 29.9661 -95.3456 90° East 144 166 25,000  Level Houston Center
07:09AM 29.9289 -95.3200 149° Southeast 190 219 2,700 -9,600 Descending Houston Center
07:10AM 29.9834 -94.9212 90° East  Level FlightAware Approximate
07:10AM 29.9069 -95.2422 108° East 258 297 5,600  Level Houston Center
07:11AM 29.9834 -94.7838 90° East  Level FlightAware Approximate
07:11AM 29.8953 -95.1511 98° East 284 327 8,900  Level Houston Center
07:12AM 29.9833 -94.6464 90° East  Level FlightAware Approximate
07:12AM 29.9047 -95.0494 84° East 312 359 11,400  Level Houston Center
07:13AM 29.9834 -94.5090 90° East  Level FlightAware Approximate
07:13AM 29.9189 -94.9269 82° East 380 437 13,300  Level Houston Center
07:14AM 29.9358 -94.7947 82° East 411 473 16,200 2,640 Climbing Houston Center
07:15AM 29.9550 -94.6581 81° East 427 491 18,700 2,340 Climbing Houston Center
07:16AM 29.9722 -94.5164 82° East 441 507 21,000 1,980 Climbing Houston Center
07:17AM 29.9889 -94.3647 83° East 457 526 22,800 1,860 Climbing Houston Center
07:18AM 30.0069 -94.2158 82° East 468 539 24,900 1,080 Climbing Houston Center
07:19AM 30.0250 -94.0683 82° East 468 539 25,000  Climbing Houston Center
07:20AM 30.0422 -93.9206 82° East 468 539 25,000  Level Houston Center
07:21AM 30.0644 -93.7442 82° East 468 539 25,000  Level Houston Center
07:22AM 30.0828 -93.5992 82° East 465 535 25,000  Level Houston Center
07:23AM 30.1003 -93.4531 82° East 467 537 25,000  Level Houston Center
07:24AM 30.1167 -93.3069 83° East 466 536 25,000  Level Houston Center
07:25AM 30.1347 -93.1597 82° East 466 536 25,000  Level Houston Center
07:26AM 30.1589 -93.0142 79° East 467 537 25,000  Level Houston Center
07:27AM 30.1875 -92.8711 77° East 461 531 25,000  Level Houston Center
07:28AM 30.2161 -92.7258 77° East 465 535 25,000  Level Houston Center
07:29AM 30.2453 -92.5797 77° East 468 539 25,000  Level Houston Center
07:30AM 30.2736 -92.4333 77° East 469 540 25,000  Level Houston Center
07:31AM 30.3047 -92.2672 78° East 471 542 25,000  Level Houston Center
07:32AM 30.3308 -92.1211 78° East 468 539 25,000  Level Houston Center
07:33AM 30.3592 -91.9756 77° East 467 537 25,000  Level Houston Center
07:34AM 30.3878 -91.8275 77° East 470 541 25,000  Level Houston Center
07:35AM 30.4183 -91.6706 77° East 467 537 25,000  Level Houston Center
07:36AM 30.4453 -91.5244 78° East 465 535 25,000  Level Houston Center
07:37AM 30.4725 -91.3772 78° East 467 537 25,000  Level Houston Center
07:38AM 30.5014 -91.2297 77° East 469 540 25,000  Level Houston Center
07:39AM 30.5356 -91.0842 75° East 468 539 25,000  Level Houston Center
07:40AM 30.5678 -90.9375 76° East 469 540 25,000  Level Houston Center
07:41AM 30.6008 -90.7911 75° East 468 539 25,000  Level Houston Center
07:42AM 30.6339 -90.6458 75° East 467 537 25,000  Level Houston Center
07:43AM 30.6661 -90.4992 76° East 467 537 25,000  Level Houston Center
07:44AM 30.7053 -90.3233 75° East 468 539 25,000  Level Houston Center
07:45AM 30.7375 -90.1761 76° East 468 539 25,000  Level Houston Center
07:46AM 30.7686 -90.0289 76° East 467 537 25,000  Level Houston Center
07:47AM 30.8003 -89.8819 76° East 467 537 25,000  Level Houston Center
07:48AM 30.8325 -89.7342 76° East 469 540 25,000  Level Houston Center
07:49AM 30.8647 -89.5869 76° East 468 539 25,000  Level Houston Center
07:50AM 30.8961 -89.4406 76° East 466 536 25,000  Level Houston Center
07:51AM 30.9272 -89.2925 76° East 468 539 25,000  Level Houston Center
07:52AM 30.9592 -89.1439 76° East 472 543 25,000  Level Houston Center
07:53AM 30.9906 -88.9969 76° East 467 537 25,000  Level Houston Center
07:54AM 31.0250 -88.8356 76° East 466 536 25,000  Level Houston Center
07:55AM 31.0567 -88.6878 76° East 469 540 25,000  Level Houston Center
07:56AM 31.0850 -88.5558 76° East 467 537 25,000  Level Houston Center
07:57AM 31.1369 -88.4189 66° East 466 536 25,000  Level Houston Center
07:58AM 31.2300 -88.2772 52° Northeast 460 529 25,000  Level Houston Center
07:59AM 31.2844 -88.1911 53° Northeast 447 514 25,000  Level Atlanta Center
08:00AM 31.3661 -88.0611 54° Northeast 447 514 25,000  Level Atlanta Center
08:01AM 31.4408 -87.9403 54° Northeast 452 520 25,000  Level Atlanta Center
08:02AM 31.5156 -87.8192 54° Northeast 452 520 25,000  Level Atlanta Center
08:03AM 31.5881 -87.7028 54° Northeast 452 520 25,000  Level Atlanta Center
08:04AM 31.6603 -87.5814 55° Northeast 452 520 25,000  Level Atlanta Center
08:05AM 31.7325 -87.4622 55° Northeast 452 520 25,000  Level Atlanta Center
08:06AM 31.8047 -87.3403 55° Northeast 452 520 25,000  Level Atlanta Center
08:07AM 31.8836 -87.2039 56° Northeast 452 520 25,000  Level Atlanta Center
08:08AM 31.9533 -87.0864 55° Northeast 452 520 25,000  Level Atlanta Center
08:09AM 32.0272 -86.9664 54° Northeast 447 514 25,000  Level Atlanta Center
08:10AM 32.0989 -86.8461 55° Northeast 447 514 25,000  Level Atlanta Center
08:11AM 32.1683 -86.7256 56° Northeast 447 514 25,000  Level Atlanta Center
08:12AM 32.2392 -86.6244 50° Northeast 447 514 25,000  Level Atlanta Center
08:13AM 32.3086 -86.5014 56° Northeast 447 514 25,000  Level Atlanta Center
08:14AM 32.3758 -86.3631 60° Northeast 456 525 25,000  Level Atlanta Center
08:15AM 32.4492 -86.2417 54° Northeast 451 519 25,000  Level Atlanta Center
08:16AM 32.5264 -86.1206 53° Northeast 451 519 25,000  Level Atlanta Center
08:17AM 32.5908 -86.0136 54° Northeast 451 519 25,000  Level Atlanta Center
08:18AM 32.6636 -85.8919 55° Northeast 451 519 25,000  Level Atlanta Center
08:19AM 32.7364 -85.7700 55° Northeast 446 513 25,000 -240 Level Atlanta Center
08:20AM 32.8111 -85.6503 53° Northeast 446 513 24,600 -1,320 Descending Atlanta Center
08:21AM 32.8814 -85.5328 55° Northeast 441 507 22,400 -2,520 Descending Atlanta Center
08:22AM 32.9517 -85.4203 53° Northeast 441 507 19,600 -2,580 Descending Atlanta Center
08:23AM 33.0175 -85.3097 55° Northeast 422 486 17,300 -2,580 Descending Atlanta Center
08:24AM 33.0811 -85.2064 54° Northeast 394 453 14,500 -2,460 Descending Atlanta Center
08:25AM 33.1406 -85.1031 55° Northeast 383 441 12,400 -1,260 Descending Atlanta Center
08:26AM 33.1956 -85.0169 53° Northeast 340 391 12,000 -960 Descending Atlanta Center
08:27AM 33.2503 -84.9456 47° Northeast 310 357 10,500 -1,620 Descending Atlanta Center
08:28AM 33.3031 -84.8739 49° Northeast 292 336 8,800 -1,440 Descending Atlanta Center
08:29AM 33.3597 -84.8047 46° Northeast 281 323 7,700 -1,140 Descending Atlanta Center
08:30AM 33.4333 -84.7833 14° North 228 262 6,400 -1,020 Descending Atlanta TRACON
08:31AM 33.4833 -84.7667 16° North 218 251 5,600 -960 Descending Atlanta TRACON
08:32AM 33.5500 -84.7500 12° North 202 232 4,600 -900 Descending Atlanta TRACON
08:33AM 33.5667 -84.7000 68° East 196 226 3,900 -660 Descending Atlanta TRACON
08:34AM 33.6000 -84.6500 51° Northeast 189 217 3,400 -480 Descending Atlanta TRACON
08:35AM 33.6167 -84.6000 68° East 165 190 3,100 -300 Descending Atlanta TRACON